sensor_id;sensor_type;location;lat;lon;timestamp;temperature;humidity
15906;DHT22;8051;50.820;4.884;2024-01-15T00:01:46;1.00;99.90
15906;DHT22;8051;50.820;4.884;2024-01-15T00:04:14;1.00;99.90
15906;DHT22;8051;50.820;4.884;2024-01-15T00:06:43;1.00;99.90
15906;DHT22;8051;50.820;4.884;2024-01-15T00:09:10;1.00;99.90
15906;DHT22;8051;50.820;4.884;2024-01-15T00:11:37;1.00;99.90
15906;DHT22;8051;50.820;4.884;2024-01-15T00:14:05;1.00;99.90
15906;DHT22;8051;50.820;4.884;2024-01-15T00:16:33;1.00;99.90
15906;DHT22;8051;50.820;4.884;2024-01-15T00:19:00;1.00;99.90
15906;DHT22;8051;50.820;4.884;2024-01-15T00:21:27;1.00;99.90
15906;DHT22;8051;50.820;4.884;2024-01-15T00:23:56;1.00;99.90
15906;DHT22;8051;50.820;4.884;2024-01-15T00:26:24;1.00;99.90
15906;DHT22;8051;50.820;4.884;2024-01-15T00:28:51;1.00;99.90
15906;DHT22;8051;50.820;4.884;2024-01-15T00:31:19;1.00;99.90
15906;DHT22;8051;50.820;4.884;2024-01-15T00:33:46;1.00;99.90
15906;DHT22;8051;50.820;4.884;2024-01-15T00:36:14;1.10;99.90
15906;DHT22;8051;50.820;4.884;2024-01-15T00:38:43;1.10;99.90
15906;DHT22;8051;50.820;4.884;2024-01-15T00:41:14;1.10;99.90
15906;DHT22;8051;50.820;4.884;2024-01-15T00:43:42;1.10;99.90
15906;DHT22;8051;50.820;4.884;2024-01-15T00:46:09;1.10;99.90
15906;DHT22;8051;50.820;4.884;2024-01-15T00:48:37;1.10;99.90
15906;DHT22;8051;50.820;4.884;2024-01-15T00:51:05;1.10;99.90
15906;DHT22;8051;50.820;4.884;2024-01-15T00:53:32;1.10;99.90
15906;DHT22;8051;50.820;4.884;2024-01-15T00:55:59;1.10;99.90
15906;DHT22;8051;50.820;4.884;2024-01-15T00:58:29;1.10;99.90
15906;DHT22;8051;50.820;4.884;2024-01-15T01:00:56;1.10;99.90
15906;DHT22;8051;50.820;4.884;2024-01-15T01:03:24;1.10;99.90
15906;DHT22;8051;50.820;4.884;2024-01-15T01:05:51;1.10;99.90
15906;DHT22;8051;50.820;4.884;2024-01-15T01:08:19;1.10;99.90
15906;DHT22;8051;50.820;4.884;2024-01-15T01:10:46;1.20;99.90
15906;DHT22;8051;50.820;4.884;2024-01-15T01:13:13;1.20;99.90
15906;DHT22;8051;50.820;4.884;2024-01-15T01:15:42;1.20;99.90
15906;DHT22;8051;50.820;4.884;2024-01-15T01:18:10;1.20;99.90
15906;DHT22;8051;50.820;4.884;2024-01-15T01:20:37;1.30;99.90
15906;DHT22;8051;50.820;4.884;2024-01-15T01:23:05;1.30;99.90
15906;DHT22;8051;50.820;4.884;2024-01-15T01:25:32;1.30;99.90
15906;DHT22;8051;50.820;4.884;2024-01-15T01:27:59;1.30;99.90
15906;DHT22;8051;50.820;4.884;2024-01-15T01:30:27;1.30;99.90
15906;DHT22;8051;50.820;4.884;2024-01-15T01:32:56;1.30;99.90
15906;DHT22;8051;50.820;4.884;2024-01-15T01:35:23;1.30;99.90
15906;DHT22;8051;50.820;4.884;2024-01-15T01:37:51;1.30;99.90
15906;DHT22;8051;50.820;4.884;2024-01-15T01:40:18;1.30;99.90
15906;DHT22;8051;50.820;4.884;2024-01-15T01:42:45;1.30;99.90
15906;DHT22;8051;50.820;4.884;2024-01-15T01:45:12;1.30;99.90
15906;DHT22;8051;50.820;4.884;2024-01-15T01:47:39;1.30;99.90
15906;DHT22;8051;50.820;4.884;2024-01-15T01:50:08;1.30;99.90
15906;DHT22;8051;50.820;4.884;2024-01-15T01:52:36;1.20;99.90
15906;DHT22;8051;50.820;4.884;2024-01-15T01:55:05;1.20;99.90
15906;DHT22;8051;50.820;4.884;2024-01-15T01:57:33;1.10;99.90
15906;DHT22;8051;50.820;4.884;2024-01-15T02:00:02;1.10;99.90
15906;DHT22;8051;50.820;4.884;2024-01-15T02:02:32;1.10;99.90
15906;DHT22;8051;50.820;4.884;2024-01-15T02:04:59;1.20;99.90
15906;DHT22;8051;50.820;4.884;2024-01-15T02:07:28;1.20;99.90
15906;DHT22;8051;50.820;4.884;2024-01-15T02:09:55;1.20;99.90
15906;DHT22;8051;50.820;4.884;2024-01-15T02:12:23;1.20;99.90
15906;DHT22;8051;50.820;4.884;2024-01-15T02:14:50;1.20;99.90
15906;DHT22;8051;50.820;4.884;2024-01-15T02:17:18;1.20;99.90
15906;DHT22;8051;50.820;4.884;2024-01-15T02:19:45;1.20;99.90
15906;DHT22;8051;50.820;4.884;2024-01-15T02:22:13;1.20;99.90
15906;DHT22;8051;50.820;4.884;2024-01-15T02:24:42;1.20;99.90
15906;DHT22;8051;50.820;4.884;2024-01-15T02:27:09;1.10;99.90
15906;DHT22;8051;50.820;4.884;2024-01-15T02:29:37;1.10;99.90
15906;DHT22;8051;50.820;4.884;2024-01-15T02:32:05;1.10;99.90
15906;DHT22;8051;50.820;4.884;2024-01-15T02:34:33;1.10;99.90
15906;DHT22;8051;50.820;4.884;2024-01-15T02:37:00;1.10;99.90
15906;DHT22;8051;50.820;4.884;2024-01-15T02:39:28;1.20;99.90
15906;DHT22;8051;50.820;4.884;2024-01-15T02:41:57;1.20;99.90
15906;DHT22;8051;50.820;4.884;2024-01-15T02:44:25;1.20;99.90
15906;DHT22;8051;50.820;4.884;2024-01-15T02:46:52;1.20;99.90
15906;DHT22;8051;50.820;4.884;2024-01-15T02:49:19;1.20;99.90
15906;DHT22;8051;50.820;4.884;2024-01-15T02:51:47;1.20;99.90
15906;DHT22;8051;50.820;4.884;2024-01-15T02:54:14;1.30;99.90
15906;DHT22;8051;50.820;4.884;2024-01-15T02:56:42;1.20;99.90
15906;DHT22;8051;50.820;4.884;2024-01-15T02:59:11;1.20;99.90
15906;DHT22;8051;50.820;4.884;2024-01-15T03:01:38;1.20;99.90
15906;DHT22;8051;50.820;4.884;2024-01-15T03:04:05;1.20;99.90
15906;DHT22;8051;50.820;4.884;2024-01-15T03:06:33;1.20;99.90
15906;DHT22;8051;50.820;4.884;2024-01-15T03:09:00;1.20;99.90
15906;DHT22;8051;50.820;4.884;2024-01-15T03:11:29;1.20;99.90
15906;DHT22;8051;50.820;4.884;2024-01-15T03:13:56;1.20;99.90
15906;DHT22;8051;50.820;4.884;2024-01-15T03:16:25;1.20;99.90
15906;DHT22;8051;50.820;4.884;2024-01-15T03:18:53;1.20;99.90
15906;DHT22;8051;50.820;4.884;2024-01-15T03:21:20;1.20;99.90
15906;DHT22;8051;50.820;4.884;2024-01-15T03:23:48;1.20;99.90
15906;DHT22;8051;50.820;4.884;2024-01-15T03:26:15;1.30;99.90
15906;DHT22;8051;50.820;4.884;2024-01-15T03:28:43;1.30;99.90
15906;DHT22;8051;50.820;4.884;2024-01-15T03:31:10;1.30;99.90
15906;DHT22;8051;50.820;4.884;2024-01-15T03:33:39;1.30;99.90
15906;DHT22;8051;50.820;4.884;2024-01-15T03:36:07;1.30;99.90
15906;DHT22;8051;50.820;4.884;2024-01-15T03:38:40;1.30;99.90
15906;DHT22;8051;50.820;4.884;2024-01-15T03:41:08;1.30;99.90
15906;DHT22;8051;50.820;4.884;2024-01-15T03:43:35;1.30;99.90
15906;DHT22;8051;50.820;4.884;2024-01-15T03:46:03;1.30;99.90
15906;DHT22;8051;50.820;4.884;2024-01-15T03:48:31;1.30;99.90
15906;DHT22;8051;50.820;4.884;2024-01-15T03:51:00;1.30;99.90
15906;DHT22;8051;50.820;4.884;2024-01-15T03:53:27;1.30;99.90
15906;DHT22;8051;50.820;4.884;2024-01-15T03:55:54;1.20;99.90
15906;DHT22;8051;50.820;4.884;2024-01-15T03:58:22;1.30;99.90
15906;DHT22;8051;50.820;4.884;2024-01-15T04:00:50;1.30;99.90
15906;DHT22;8051;50.820;4.884;2024-01-15T04:03:17;1.30;99.90
15906;DHT22;8051;50.820;4.884;2024-01-15T04:05:45;1.30;99.90
15906;DHT22;8051;50.820;4.884;2024-01-15T04:08:13;1.30;99.90
15906;DHT22;8051;50.820;4.884;2024-01-15T04:10:40;1.30;99.90
15906;DHT22;8051;50.820;4.884;2024-01-15T04:13:08;1.30;99.90
15906;DHT22;8051;50.820;4.884;2024-01-15T04:15:35;1.20;99.90
15906;DHT22;8051;50.820;4.884;2024-01-15T04:18:04;1.20;99.90
15906;DHT22;8051;50.820;4.884;2024-01-15T04:20:31;1.20;99.90
15906;DHT22;8051;50.820;4.884;2024-01-15T04:22:58;1.20;99.90
15906;DHT22;8051;50.820;4.884;2024-01-15T04:25:27;1.20;99.90
15906;DHT22;8051;50.820;4.884;2024-01-15T04:27:55;1.10;99.90
15906;DHT22;8051;50.820;4.884;2024-01-15T04:30:22;1.20;99.90
15906;DHT22;8051;50.820;4.884;2024-01-15T04:32:50;1.10;99.90
15906;DHT22;8051;50.820;4.884;2024-01-15T04:35:17;1.10;99.90
15906;DHT22;8051;50.820;4.884;2024-01-15T04:37:44;1.10;99.90
15906;DHT22;8051;50.820;4.884;2024-01-15T04:40:12;1.00;99.90
15906;DHT22;8051;50.820;4.884;2024-01-15T04:42:42;0.90;99.90
15906;DHT22;8051;50.820;4.884;2024-01-15T04:45:11;0.90;99.90
15906;DHT22;8051;50.820;4.884;2024-01-15T04:47:39;0.90;99.90
15906;DHT22;8051;50.820;4.884;2024-01-15T04:50:07;0.90;99.90
15906;DHT22;8051;50.820;4.884;2024-01-15T04:52:35;0.90;99.90
15906;DHT22;8051;50.820;4.884;2024-01-15T04:55:02;0.90;99.90
15906;DHT22;8051;50.820;4.884;2024-01-15T04:57:30;0.90;99.90
15906;DHT22;8051;50.820;4.884;2024-01-15T04:59:59;0.80;99.90
15906;DHT22;8051;50.820;4.884;2024-01-15T05:02:26;0.80;99.90
15906;DHT22;8051;50.820;4.884;2024-01-15T05:04:54;0.70;99.90
15906;DHT22;8051;50.820;4.884;2024-01-15T05:07:21;0.70;99.90
15906;DHT22;8051;50.820;4.884;2024-01-15T05:09:49;0.70;99.90
15906;DHT22;8051;50.820;4.884;2024-01-15T05:12:16;0.70;99.90
15906;DHT22;8051;50.820;4.884;2024-01-15T05:14:44;0.70;99.90
15906;DHT22;8051;50.820;4.884;2024-01-15T05:17:13;0.60;99.90
15906;DHT22;8051;50.820;4.884;2024-01-15T05:19:40;0.70;99.90
15906;DHT22;8051;50.820;4.884;2024-01-15T05:22:07;0.50;99.90
15906;DHT22;8051;50.820;4.884;2024-01-15T05:24:35;0.50;99.90
15906;DHT22;8051;50.820;4.884;2024-01-15T05:27:03;0.50;99.90
15906;DHT22;8051;50.820;4.884;2024-01-15T05:29:30;0.40;99.90
15906;DHT22;8051;50.820;4.884;2024-01-15T05:31:58;0.50;99.90
15906;DHT22;8051;50.820;4.884;2024-01-15T05:34:27;0.50;99.90
15906;DHT22;8051;50.820;4.884;2024-01-15T05:36:54;0.60;99.90
15906;DHT22;8051;50.820;4.884;2024-01-15T05:39:21;0.70;99.90
15906;DHT22;8051;50.820;4.884;2024-01-15T05:41:49;0.70;99.90
15906;DHT22;8051;50.820;4.884;2024-01-15T05:44:16;0.80;99.90
15906;DHT22;8051;50.820;4.884;2024-01-15T05:46:44;0.70;99.90
15906;DHT22;8051;50.820;4.884;2024-01-15T05:49:11;0.70;99.90
15906;DHT22;8051;50.820;4.884;2024-01-15T05:51:41;0.60;99.90
15906;DHT22;8051;50.820;4.884;2024-01-15T05:54:08;0.60;99.90
15906;DHT22;8051;50.820;4.884;2024-01-15T05:56:36;0.50;99.90
15906;DHT22;8051;50.820;4.884;2024-01-15T05:59:03;0.60;99.90
15906;DHT22;8051;50.820;4.884;2024-01-15T06:01:31;0.60;99.90
15906;DHT22;8051;50.820;4.884;2024-01-15T06:03:58;0.60;99.90
15906;DHT22;8051;50.820;4.884;2024-01-15T06:06:26;0.50;99.90
15906;DHT22;8051;50.820;4.884;2024-01-15T06:08:54;0.50;99.90
15906;DHT22;8051;50.820;4.884;2024-01-15T06:11:22;0.50;99.90
15906;DHT22;8051;50.820;4.884;2024-01-15T06:13:49;0.40;99.90
15906;DHT22;8051;50.820;4.884;2024-01-15T06:16:17;0.30;99.90
15906;DHT22;8051;50.820;4.884;2024-01-15T06:18:46;0.30;99.90
15906;DHT22;8051;50.820;4.884;2024-01-15T06:21:13;0.30;99.90
15906;DHT22;8051;50.820;4.884;2024-01-15T06:23:41;0.30;99.90
15906;DHT22;8051;50.820;4.884;2024-01-15T06:26:11;0.30;99.90
15906;DHT22;8051;50.820;4.884;2024-01-15T06:28:38;0.30;99.90
15906;DHT22;8051;50.820;4.884;2024-01-15T06:31:06;0.30;99.90
15906;DHT22;8051;50.820;4.884;2024-01-15T06:33:34;0.20;99.90
15906;DHT22;8051;50.820;4.884;2024-01-15T06:36:01;0.20;99.90
15906;DHT22;8051;50.820;4.884;2024-01-15T06:38:29;0.20;99.90
15906;DHT22;8051;50.820;4.884;2024-01-15T06:40:56;0.20;99.90
15906;DHT22;8051;50.820;4.884;2024-01-15T06:43:25;0.20;99.90
15906;DHT22;8051;50.820;4.884;2024-01-15T06:45:53;0.20;99.90
15906;DHT22;8051;50.820;4.884;2024-01-15T06:48:20;0.20;99.90
15906;DHT22;8051;50.820;4.884;2024-01-15T06:50:48;0.20;99.90
15906;DHT22;8051;50.820;4.884;2024-01-15T06:53:15;0.20;99.90
15906;DHT22;8051;50.820;4.884;2024-01-15T06:55:42;0.30;99.90
15906;DHT22;8051;50.820;4.884;2024-01-15T06:58:10;0.30;99.90
15906;DHT22;8051;50.820;4.884;2024-01-15T07:00:39;0.30;99.90
15906;DHT22;8051;50.820;4.884;2024-01-15T07:03:07;0.30;99.90
15906;DHT22;8051;50.820;4.884;2024-01-15T07:05:34;0.30;99.90
15906;DHT22;8051;50.820;4.884;2024-01-15T07:08:03;0.40;99.90
15906;DHT22;8051;50.820;4.884;2024-01-15T07:10:31;0.40;99.90
15906;DHT22;8051;50.820;4.884;2024-01-15T07:12:58;0.30;99.90
15906;DHT22;8051;50.820;4.884;2024-01-15T07:15:26;0.30;99.90
15906;DHT22;8051;50.820;4.884;2024-01-15T07:17:54;0.30;99.90
15906;DHT22;8051;50.820;4.884;2024-01-15T07:20:22;0.30;99.90
15906;DHT22;8051;50.820;4.884;2024-01-15T07:22:49;0.20;99.90
15906;DHT22;8051;50.820;4.884;2024-01-15T07:25:17;0.20;99.90
15906;DHT22;8051;50.820;4.884;2024-01-15T07:27:44;0.20;99.90
15906;DHT22;8051;50.820;4.884;2024-01-15T07:30:13;0.20;99.90
15906;DHT22;8051;50.820;4.884;2024-01-15T07:32:41;0.20;99.90
15906;DHT22;8051;50.820;4.884;2024-01-15T07:35:10;0.10;99.90
15906;DHT22;8051;50.820;4.884;2024-01-15T07:37:37;0.10;99.90
15906;DHT22;8051;50.820;4.884;2024-01-15T07:40:05;0.10;99.90
15906;DHT22;8051;50.820;4.884;2024-01-15T07:42:34;0.10;99.90
15906;DHT22;8051;50.820;4.884;2024-01-15T07:45:02;0.10;99.90
15906;DHT22;8051;50.820;4.884;2024-01-15T07:47:29;0.10;99.90
15906;DHT22;8051;50.820;4.884;2024-01-15T07:49:57;0.10;99.90
15906;DHT22;8051;50.820;4.884;2024-01-15T07:52:26;0.10;99.90
15906;DHT22;8051;50.820;4.884;2024-01-15T07:54:53;0.20;99.90
15906;DHT22;8051;50.820;4.884;2024-01-15T07:57:21;0.20;99.90
15906;DHT22;8051;50.820;4.884;2024-01-15T07:59:48;0.20;99.90
15906;DHT22;8051;50.820;4.884;2024-01-15T08:02:17;0.20;99.90
15906;DHT22;8051;50.820;4.884;2024-01-15T08:04:44;0.20;99.90
15906;DHT22;8051;50.820;4.884;2024-01-15T08:07:12;0.20;99.90
15906;DHT22;8051;50.820;4.884;2024-01-15T08:09:41;0.30;99.90
15906;DHT22;8051;50.820;4.884;2024-01-15T08:12:08;0.30;99.90
15906;DHT22;8051;50.820;4.884;2024-01-15T08:14:36;0.40;99.90
15906;DHT22;8051;50.820;4.884;2024-01-15T08:17:04;0.40;99.90
15906;DHT22;8051;50.820;4.884;2024-01-15T08:19:31;0.50;99.90
15906;DHT22;8051;50.820;4.884;2024-01-15T08:21:59;0.50;99.90
15906;DHT22;8051;50.820;4.884;2024-01-15T08:24:26;0.50;99.90
15906;DHT22;8051;50.820;4.884;2024-01-15T08:26:55;0.60;99.90
15906;DHT22;8051;50.820;4.884;2024-01-15T08:29:23;0.60;99.90
15906;DHT22;8051;50.820;4.884;2024-01-15T08:31:50;0.60;99.90
15906;DHT22;8051;50.820;4.884;2024-01-15T08:34:18;0.70;99.90
15906;DHT22;8051;50.820;4.884;2024-01-15T08:36:45;0.70;99.90
15906;DHT22;8051;50.820;4.884;2024-01-15T08:39:13;0.70;99.90
15906;DHT22;8051;50.820;4.884;2024-01-15T08:41:40;0.80;99.90
15906;DHT22;8051;50.820;4.884;2024-01-15T08:44:09;0.80;99.90
15906;DHT22;8051;50.820;4.884;2024-01-15T08:46:36;0.80;99.90
15906;DHT22;8051;50.820;4.884;2024-01-15T08:49:04;0.80;99.90
15906;DHT22;8051;50.820;4.884;2024-01-15T08:51:31;0.80;99.90
15906;DHT22;8051;50.820;4.884;2024-01-15T08:53:59;0.90;99.90
15906;DHT22;8051;50.820;4.884;2024-01-15T08:56:26;0.90;99.90
15906;DHT22;8051;50.820;4.884;2024-01-15T08:58:54;0.90;99.90
15906;DHT22;8051;50.820;4.884;2024-01-15T09:01:23;1.00;99.90
15906;DHT22;8051;50.820;4.884;2024-01-15T09:03:50;1.00;99.90
15906;DHT22;8051;50.820;4.884;2024-01-15T09:06:18;1.10;99.90
15906;DHT22;8051;50.820;4.884;2024-01-15T09:08:46;1.10;99.90
15906;DHT22;8051;50.820;4.884;2024-01-15T09:11:14;1.10;99.90
15906;DHT22;8051;50.820;4.884;2024-01-15T09:13:41;1.20;99.90
15906;DHT22;8051;50.820;4.884;2024-01-15T09:16:09;1.20;99.90
15906;DHT22;8051;50.820;4.884;2024-01-15T09:18:38;1.20;99.90
15906;DHT22;8051;50.820;4.884;2024-01-15T09:21:05;1.30;99.90
15906;DHT22;8051;50.820;4.884;2024-01-15T09:23:32;1.30;99.90
15906;DHT22;8051;50.820;4.884;2024-01-15T09:26:00;1.40;99.90
15906;DHT22;8051;50.820;4.884;2024-01-15T09:28:28;1.40;99.90
15906;DHT22;8051;50.820;4.884;2024-01-15T09:30:55;1.50;99.90
15906;DHT22;8051;50.820;4.884;2024-01-15T09:33:23;1.50;99.90
15906;DHT22;8051;50.820;4.884;2024-01-15T09:35:52;1.60;99.90
15906;DHT22;8051;50.820;4.884;2024-01-15T09:38:20;1.60;99.90
15906;DHT22;8051;50.820;4.884;2024-01-15T09:40:47;1.70;99.90
15906;DHT22;8051;50.820;4.884;2024-01-15T09:43:15;1.70;99.90
15906;DHT22;8051;50.820;4.884;2024-01-15T09:45:44;1.80;99.90
15906;DHT22;8051;50.820;4.884;2024-01-15T09:48:12;1.70;99.90
15906;DHT22;8051;50.820;4.884;2024-01-15T09:50:39;1.80;99.90
15906;DHT22;8051;50.820;4.884;2024-01-15T09:53:09;1.70;99.90
15906;DHT22;8051;50.820;4.884;2024-01-15T09:55:36;1.70;99.90
15906;DHT22;8051;50.820;4.884;2024-01-15T09:58:04;1.60;99.90
15906;DHT22;8051;50.820;4.884;2024-01-15T10:00:33;1.50;99.90
15906;DHT22;8051;50.820;4.884;2024-01-15T10:03:03;1.50;99.90
15906;DHT22;8051;50.820;4.884;2024-01-15T10:05:31;1.50;99.90
15906;DHT22;8051;50.820;4.884;2024-01-15T10:08:00;1.60;99.90
15906;DHT22;8051;50.820;4.884;2024-01-15T10:10:30;1.60;99.90
15906;DHT22;8051;50.820;4.884;2024-01-15T10:12:58;1.80;99.90
15906;DHT22;8051;50.820;4.884;2024-01-15T10:15:26;2.00;99.90
15906;DHT22;8051;50.820;4.884;2024-01-15T10:17:54;2.10;99.90
15906;DHT22;8051;50.820;4.884;2024-01-15T10:20:21;2.20;99.90
15906;DHT22;8051;50.820;4.884;2024-01-15T10:22:50;2.20;99.90
15906;DHT22;8051;50.820;4.884;2024-01-15T10:25:18;2.20;99.90
15906;DHT22;8051;50.820;4.884;2024-01-15T10:28:01;2.30;99.90
15906;DHT22;8051;50.820;4.884;2024-01-15T10:30:28;2.30;99.90
15906;DHT22;8051;50.820;4.884;2024-01-15T10:32:59;2.40;99.90
15906;DHT22;8051;50.820;4.884;2024-01-15T10:35:29;2.40;99.90
15906;DHT22;8051;50.820;4.884;2024-01-15T10:37:56;2.40;99.90
15906;DHT22;8051;50.820;4.884;2024-01-15T10:40:25;2.40;99.90
15906;DHT22;8051;50.820;4.884;2024-01-15T10:42:52;2.50;99.90
15906;DHT22;8051;50.820;4.884;2024-01-15T10:45:21;2.50;99.90
15906;DHT22;8051;50.820;4.884;2024-01-15T10:47:49;2.50;99.90
15906;DHT22;8051;50.820;4.884;2024-01-15T10:50:16;2.50;99.90
15906;DHT22;8051;50.820;4.884;2024-01-15T10:52:44;2.50;99.90
15906;DHT22;8051;50.820;4.884;2024-01-15T10:55:12;2.60;99.90
15906;DHT22;8051;50.820;4.884;2024-01-15T10:57:40;2.70;99.90
15906;DHT22;8051;50.820;4.884;2024-01-15T11:00:08;2.70;99.90
15906;DHT22;8051;50.820;4.884;2024-01-15T11:02:42;2.70;99.90
15906;DHT22;8051;50.820;4.884;2024-01-15T11:05:10;2.80;99.90
15906;DHT22;8051;50.820;4.884;2024-01-15T11:07:39;2.80;99.90
15906;DHT22;8051;50.820;4.884;2024-01-15T11:10:08;2.80;99.90
15906;DHT22;8051;50.820;4.884;2024-01-15T11:12:56;2.80;99.90
15906;DHT22;8051;50.820;4.884;2024-01-15T11:15:23;2.70;99.90
15906;DHT22;8051;50.820;4.884;2024-01-15T11:18:02;2.70;99.90
15906;DHT22;8051;50.820;4.884;2024-01-15T11:20:31;2.90;99.90
15906;DHT22;8051;50.820;4.884;2024-01-15T11:22:58;3.00;99.90
15906;DHT22;8051;50.820;4.884;2024-01-15T11:25:34;3.20;99.90
15906;DHT22;8051;50.820;4.884;2024-01-15T11:28:04;3.20;99.90
15906;DHT22;8051;50.820;4.884;2024-01-15T11:30:32;3.30;99.90
15906;DHT22;8051;50.820;4.884;2024-01-15T11:33:04;3.40;99.90
15906;DHT22;8051;50.820;4.884;2024-01-15T11:35:48;3.50;99.90
15906;DHT22;8051;50.820;4.884;2024-01-15T11:38:27;3.60;99.90
15906;DHT22;8051;50.820;4.884;2024-01-15T11:40:55;3.60;99.90
15906;DHT22;8051;50.820;4.884;2024-01-15T11:43:22;3.60;99.90
15906;DHT22;8051;50.820;4.884;2024-01-15T11:45:52;3.50;99.90
15906;DHT22;8051;50.820;4.884;2024-01-15T11:48:22;3.30;99.90
15906;DHT22;8051;50.820;4.884;2024-01-15T11:50:52;3.20;99.90
15906;DHT22;8051;50.820;4.884;2024-01-15T11:53:30;3.30;99.90
15906;DHT22;8051;50.820;4.884;2024-01-15T11:56:02;3.30;99.90
15906;DHT22;8051;50.820;4.884;2024-01-15T11:58:30;3.30;99.90
15906;DHT22;8051;50.820;4.884;2024-01-15T12:00:58;3.30;99.90
15906;DHT22;8051;50.820;4.884;2024-01-15T12:03:27;3.30;99.90
15906;DHT22;8051;50.820;4.884;2024-01-15T12:05:54;3.40;99.90
15906;DHT22;8051;50.820;4.884;2024-01-15T12:08:22;3.50;99.90
15906;DHT22;8051;50.820;4.884;2024-01-15T12:10:50;3.50;99.90
15906;DHT22;8051;50.820;4.884;2024-01-15T12:13:18;3.40;99.90
15906;DHT22;8051;50.820;4.884;2024-01-15T12:15:46;3.30;99.90
15906;DHT22;8051;50.820;4.884;2024-01-15T12:18:16;3.30;99.90
15906;DHT22;8051;50.820;4.884;2024-01-15T12:20:46;3.30;99.90
15906;DHT22;8051;50.820;4.884;2024-01-15T12:23:14;3.50;99.90
15906;DHT22;8051;50.820;4.884;2024-01-15T12:25:42;3.60;99.90
15906;DHT22;8051;50.820;4.884;2024-01-15T12:28:10;3.80;99.90
15906;DHT22;8051;50.820;4.884;2024-01-15T12:30:38;4.00;99.90
15906;DHT22;8051;50.820;4.884;2024-01-15T12:33:07;4.10;99.90
15906;DHT22;8051;50.820;4.884;2024-01-15T12:35:35;4.30;99.90
15906;DHT22;8051;50.820;4.884;2024-01-15T12:38:04;4.10;99.90
15906;DHT22;8051;50.820;4.884;2024-01-15T12:40:32;3.90;99.90
15906;DHT22;8051;50.820;4.884;2024-01-15T12:43:00;3.90;99.90
15906;DHT22;8051;50.820;4.884;2024-01-15T12:45:28;4.00;99.90
15906;DHT22;8051;50.820;4.884;2024-01-15T12:47:56;4.00;99.90
15906;DHT22;8051;50.820;4.884;2024-01-15T12:50:24;4.00;99.90
15906;DHT22;8051;50.820;4.884;2024-01-15T12:52:52;4.00;99.90
15906;DHT22;8051;50.820;4.884;2024-01-15T12:55:21;4.10;99.90
15906;DHT22;8051;50.820;4.884;2024-01-15T12:57:49;4.10;99.90
15906;DHT22;8051;50.820;4.884;2024-01-15T13:00:20;4.00;99.90
15906;DHT22;8051;50.820;4.884;2024-01-15T13:02:47;3.90;99.90
15906;DHT22;8051;50.820;4.884;2024-01-15T13:05:16;3.80;99.90
15906;DHT22;8051;50.820;4.884;2024-01-15T13:07:44;3.90;99.90
15906;DHT22;8051;50.820;4.884;2024-01-15T13:10:12;3.90;99.90
15906;DHT22;8051;50.820;4.884;2024-01-15T13:12:40;3.80;99.90
15906;DHT22;8051;50.820;4.884;2024-01-15T13:15:08;3.60;99.90
15906;DHT22;8051;50.820;4.884;2024-01-15T13:17:38;3.10;99.90
15906;DHT22;8051;50.820;4.884;2024-01-15T13:20:06;2.60;99.90
15906;DHT22;8051;50.820;4.884;2024-01-15T13:22:36;2.30;99.90
15906;DHT22;8051;50.820;4.884;2024-01-15T13:25:06;1.90;99.90
15906;DHT22;8051;50.820;4.884;2024-01-15T13:27:34;1.60;99.90
15906;DHT22;8051;50.820;4.884;2024-01-15T13:30:04;1.10;99.90
15906;DHT22;8051;50.820;4.884;2024-01-15T13:32:32;0.80;99.90
15906;DHT22;8051;50.820;4.884;2024-01-15T13:35:00;0.70;99.90
15906;DHT22;8051;50.820;4.884;2024-01-15T13:37:28;0.60;99.90
15906;DHT22;8051;50.820;4.884;2024-01-15T13:39:56;0.50;99.90
15906;DHT22;8051;50.820;4.884;2024-01-15T13:42:24;0.50;99.90
15906;DHT22;8051;50.820;4.884;2024-01-15T13:44:53;0.50;99.90
15906;DHT22;8051;50.820;4.884;2024-01-15T13:47:22;0.60;99.90
15906;DHT22;8051;50.820;4.884;2024-01-15T13:49:49;0.60;99.90
15906;DHT22;8051;50.820;4.884;2024-01-15T13:52:17;0.60;99.90
15906;DHT22;8051;50.820;4.884;2024-01-15T13:54:44;0.60;99.90
15906;DHT22;8051;50.820;4.884;2024-01-15T13:57:12;0.60;99.90
15906;DHT22;8051;50.820;4.884;2024-01-15T13:59:39;0.60;99.90
15906;DHT22;8051;50.820;4.884;2024-01-15T14:02:07;0.70;99.90
15906;DHT22;8051;50.820;4.884;2024-01-15T14:04:37;0.70;99.90
15906;DHT22;8051;50.820;4.884;2024-01-15T14:07:04;0.70;99.90
15906;DHT22;8051;50.820;4.884;2024-01-15T14:09:32;0.70;99.90
15906;DHT22;8051;50.820;4.884;2024-01-15T14:12:00;0.70;99.90
15906;DHT22;8051;50.820;4.884;2024-01-15T14:14:28;0.70;99.90
15906;DHT22;8051;50.820;4.884;2024-01-15T14:16:56;0.70;99.90
15906;DHT22;8051;50.820;4.884;2024-01-15T14:19:23;0.70;99.90
15906;DHT22;8051;50.820;4.884;2024-01-15T14:21:52;0.80;99.90
15906;DHT22;8051;50.820;4.884;2024-01-15T14:24:19;0.80;99.90
15906;DHT22;8051;50.820;4.884;2024-01-15T14:26:47;0.80;99.90
15906;DHT22;8051;50.820;4.884;2024-01-15T14:29:14;0.80;99.90
15906;DHT22;8051;50.820;4.884;2024-01-15T14:31:41;0.90;99.90
15906;DHT22;8051;50.820;4.884;2024-01-15T14:34:09;0.90;99.90
15906;DHT22;8051;50.820;4.884;2024-01-15T14:36:37;0.90;99.90
15906;DHT22;8051;50.820;4.884;2024-01-15T14:39:06;0.90;99.90
15906;DHT22;8051;50.820;4.884;2024-01-15T14:41:35;0.80;99.90
15906;DHT22;8051;50.820;4.884;2024-01-15T14:44:02;0.70;99.90
15906;DHT22;8051;50.820;4.884;2024-01-15T14:46:30;0.60;99.90
15906;DHT22;8051;50.820;4.884;2024-01-15T14:48:57;0.50;99.90
15906;DHT22;8051;50.820;4.884;2024-01-15T14:51:25;0.40;99.90
15906;DHT22;8051;50.820;4.884;2024-01-15T14:53:52;0.40;99.90
15906;DHT22;8051;50.820;4.884;2024-01-15T14:56:22;0.40;99.90
15906;DHT22;8051;50.820;4.884;2024-01-15T14:58:49;0.40;99.90
15906;DHT22;8051;50.820;4.884;2024-01-15T15:01:17;0.40;99.90
15906;DHT22;8051;50.820;4.884;2024-01-15T15:03:44;0.40;99.90
15906;DHT22;8051;50.820;4.884;2024-01-15T15:06:12;0.40;99.90
15906;DHT22;8051;50.820;4.884;2024-01-15T15:08:39;0.40;99.90
15906;DHT22;8051;50.820;4.884;2024-01-15T15:11:07;0.40;99.90
15906;DHT22;8051;50.820;4.884;2024-01-15T15:13:38;0.40;99.90
15906;DHT22;8051;50.820;4.884;2024-01-15T15:16:05;0.40;99.90
15906;DHT22;8051;50.820;4.884;2024-01-15T15:18:33;0.40;99.90
15906;DHT22;8051;50.820;4.884;2024-01-15T15:21:00;0.40;99.90
15906;DHT22;8051;50.820;4.884;2024-01-15T15:23:28;0.40;99.90
15906;DHT22;8051;50.820;4.884;2024-01-15T15:25:55;0.60;99.90
15906;DHT22;8051;50.820;4.884;2024-01-15T15:28:23;0.60;99.90
15906;DHT22;8051;50.820;4.884;2024-01-15T15:30:51;0.60;99.90
15906;DHT22;8051;50.820;4.884;2024-01-15T15:33:19;0.70;99.90
15906;DHT22;8051;50.820;4.884;2024-01-15T15:35:46;0.70;99.90
15906;DHT22;8051;50.820;4.884;2024-01-15T15:38:16;0.70;99.90
15906;DHT22;8051;50.820;4.884;2024-01-15T15:40:44;0.70;99.90
15906;DHT22;8051;50.820;4.884;2024-01-15T15:43:11;0.60;99.90
15906;DHT22;8051;50.820;4.884;2024-01-15T15:45:38;0.60;99.90
15906;DHT22;8051;50.820;4.884;2024-01-15T15:48:07;0.70;99.90
15906;DHT22;8051;50.820;4.884;2024-01-15T15:50:35;0.60;99.90
15906;DHT22;8051;50.820;4.884;2024-01-15T15:53:03;0.60;99.90
15906;DHT22;8051;50.820;4.884;2024-01-15T15:55:30;0.60;99.90
15906;DHT22;8051;50.820;4.884;2024-01-15T15:57:58;0.60;99.90
15906;DHT22;8051;50.820;4.884;2024-01-15T16:00:25;0.60;99.90
15906;DHT22;8051;50.820;4.884;2024-01-15T16:02:52;0.60;99.90
15906;DHT22;8051;50.820;4.884;2024-01-15T16:05:21;0.60;99.90
15906;DHT22;8051;50.820;4.884;2024-01-15T16:07:49;0.70;99.90